createdAt,value
2022-08-17T00:02:27.095Z,12.93
2022-08-17T00:06:35.938Z,12.70
2022-08-17T00:10:42.315Z,16.67
2022-08-17T00:14:48.360Z,12.70
2022-08-17T00:19:07.381Z,13.23
2022-08-17T00:23:18.143Z,15.65
2022-08-17T00:27:23.671Z,13.77
2022-08-17T00:31:29.486Z,13.50
2022-08-17T00:35:34.934Z,14.27
2022-08-17T00:39:42.971Z,13.70
2022-08-17T00:43:51.137Z,14.07
2022-08-17T00:47:56.552Z,12.10
2022-08-17T00:52:11.673Z,12.27
2022-08-17T00:56:25.313Z,11.07
2022-08-17T01:00:37.072Z,11.82
2022-08-17T01:04:42.650Z,14.38
2022-08-17T01:08:48.197Z,14.43
2022-08-17T01:13:07.220Z,15.38
2022-08-17T01:17:13.226Z,12.98
2022-08-17T01:21:23.218Z,14.70
2022-08-17T01:25:32.125Z,15.77
2022-08-17T01:29:38.815Z,16.58
2022-08-17T01:33:44.252Z,12.45
2022-08-17T01:37:49.738Z,13.55
2022-08-17T01:42:07.261Z,15.48
2022-08-17T01:46:12.867Z,11.52
2022-08-17T01:50:20.925Z,15.02
2022-08-17T01:54:27.946Z,12.32
2022-08-17T01:58:37.591Z,12.00
2022-08-17T02:02:46.033Z,13.60
2022-08-17T02:06:53.272Z,14.40
2022-08-17T02:11:00.245Z,15.27
2022-08-17T02:15:10.392Z,12.18
2022-08-17T02:19:18.516Z,10.85
2022-08-17T02:23:27.409Z,14.27
2022-08-17T02:27:32.755Z,12.55
2022-08-17T02:31:40.766Z,15.18
2022-08-17T02:35:46.334Z,14.88
2022-08-17T02:39:51.797Z,12.98
2022-08-17T02:43:57.246Z,14.60
2022-08-17T02:48:05.881Z,13.60
2022-08-17T02:52:11.525Z,14.98
2022-08-17T02:56:16.971Z,13.30
2022-08-17T03:00:25.479Z,11.07
2022-08-17T03:04:35.343Z,10.38
2022-08-17T03:08:40.998Z,12.15
2022-08-17T03:12:47.771Z,11.30
2022-08-17T03:16:53.131Z,13.73
2022-08-17T03:21:04.646Z,13.10
2022-08-17T03:25:11.828Z,12.98
2022-08-17T03:29:19.374Z,11.15
2022-08-17T03:33:25.276Z,9.10
2022-08-17T03:37:33.247Z,10.93
2022-08-17T03:41:38.926Z,10.18
2022-08-17T03:45:57.844Z,12.95
2022-08-17T03:50:15.648Z,11.30
2022-08-17T03:54:36.391Z,15.43
2022-08-17T03:58:41.883Z,12.97
2022-08-17T04:02:47.282Z,11.63
2022-08-17T04:06:52.726Z,13.13
2022-08-17T04:11:01.983Z,16.90
2022-08-17T04:15:08.401Z,11.50
2022-08-17T04:19:13.803Z,12.93
2022-08-17T04:23:21.365Z,15.05
2022-08-17T04:27:29.343Z,13.40
2022-08-17T04:31:34.763Z,11.73
2022-08-17T04:35:44.083Z,11.43
2022-08-17T04:40:09.490Z,12.95
2022-08-17T04:44:36.964Z,9.98
2022-08-17T04:48:45.874Z,14.45
2022-08-17T04:52:51.195Z,11.75
2022-08-17T04:56:56.618Z,15.10
2022-08-17T05:01:05.976Z,11.07
2022-08-17T05:05:12.243Z,10.02
2022-08-17T05:09:19.728Z,11.27
2022-08-17T05:13:27.156Z,11.73
2022-08-17T05:17:35.126Z,15.05
2022-08-17T05:21:40.491Z,9.38
2022-08-17T05:25:48.552Z,10.65
2022-08-17T05:29:55.780Z,9.18
2022-08-17T05:34:03.869Z,12.82
2022-08-17T05:38:10.274Z,13.00
2022-08-17T05:42:15.919Z,9.93
2022-08-17T05:46:26.177Z,13.98
2022-08-17T05:50:51.465Z,9.02
2022-08-17T05:55:08.936Z,14.90
2022-08-17T05:59:22.046Z,13.95
2022-08-17T06:03:39.781Z,13.55
2022-08-17T06:07:52.718Z,14.45
2022-08-17T06:12:05.720Z,17.00
2022-08-17T06:16:25.967Z,13.15
2022-08-17T06:20:48.313Z,12.80
2022-08-17T06:25:01.164Z,15.00
2022-08-17T06:29:18.737Z,18.63
2022-08-17T06:33:28.827Z,9.70
2022-08-17T06:37:48.899Z,11.50
2022-08-17T06:42:07.009Z,17.15
2022-08-17T06:46:25.499Z,15.30
2022-08-17T06:50:40.113Z,10.70
2022-08-17T06:54:54.579Z,10.95
2022-08-17T06:59:04.776Z,9.65
2022-08-17T07:03:19.115Z,11.98
2022-08-17T07:07:43.928Z,7.68
2022-08-17T07:11:54.557Z,8.20
2022-08-17T07:16:14.851Z,7.65
2022-08-17T07:20:23.752Z,8.35
2022-08-17T07:24:38.089Z,10.98
2022-08-17T07:28:45.060Z,7.88
2022-08-17T07:32:57.533Z,11.00
2022-08-17T07:37:06.569Z,7.30
2022-08-17T07:41:13.815Z,7.78
2022-08-17T07:45:31.472Z,10.77
2022-08-17T07:49:42.439Z,7.00
2022-08-17T07:53:48.189Z,8.65
2022-08-17T07:57:58.700Z,7.03
2022-08-17T08:02:17.222Z,6.75
2022-08-17T08:06:28.234Z,8.77
2022-08-17T08:10:38.650Z,6.32
2022-08-17T08:14:57.408Z,7.45
2022-08-17T08:19:04.793Z,7.65
2022-08-17T08:23:20.269Z,7.95
2022-08-17T08:27:37.107Z,6.28
2022-08-17T08:31:56.398Z,7.07
2022-08-17T08:36:12.890Z,8.38
2022-08-17T08:41:04.247Z,8.38
2022-08-17T08:45:18.818Z,8.60
2022-08-17T08:50:04.665Z,7.03
2022-08-17T08:54:22.341Z,6.80
2022-08-17T08:58:42.214Z,8.32
2022-08-17T09:03:14.297Z,8.75
2022-08-17T09:07:32.563Z,6.15
2022-08-17T09:12:01.823Z,6.90
2022-08-17T09:16:17.643Z,6.53
2022-08-17T09:20:28.286Z,7.05
2022-08-17T09:24:40.213Z,9.95
2022-08-17T09:28:52.411Z,9.20
2022-08-17T09:33:05.233Z,8.68
2022-08-17T09:37:22.911Z,6.18
2022-08-17T09:41:34.306Z,9.40
2022-08-17T09:45:46.247Z,7.28
2022-08-17T09:50:00.559Z,9.60
2022-08-17T09:54:35.216Z,7.78
2022-08-17T09:58:45.086Z,8.10
2022-08-17T10:03:16.473Z,8.55
2022-08-17T10:07:35.277Z,6.45
2022-08-17T10:12:05.773Z,8.93
2022-08-17T10:16:20.733Z,6.35
2022-08-17T10:20:30.430Z,6.25
2022-08-17T10:25:02.081Z,13.43
2022-08-17T10:29:26.028Z,6.95
2022-08-17T10:33:43.486Z,5.80
2022-08-17T10:38:15.537Z,8.75
2022-08-17T10:42:33.799Z,15.75
2022-08-17T10:46:55.595Z,7.85
2022-08-17T10:51:09.781Z,8.50
2022-08-17T10:55:17.951Z,9.70
2022-08-17T10:59:54.265Z,9.57
2022-08-17T11:04:03.675Z,9.05
2022-08-17T11:08:39.047Z,6.38
2022-08-17T11:12:57.098Z,7.75
2022-08-17T11:17:16.963Z,10.98
2022-08-17T11:21:56.083Z,8.07
2022-08-17T11:26:08.451Z,6.85
2022-08-17T11:30:16.853Z,8.32
2022-08-17T11:34:27.750Z,7.93
2022-08-17T11:38:48.794Z,9.07
2022-08-17T11:43:33.546Z,9.07
2022-08-17T11:48:26.119Z,6.72
2022-08-17T11:52:45.074Z,5.90
2022-08-17T11:56:54.167Z,5.63
2022-08-17T12:01:01.608Z,5.90
2022-08-17T12:09:26.513Z,7.82
2022-08-17T12:13:39.890Z,5.20
2022-08-17T12:17:53.673Z,4.30
2022-08-17T12:22:04.343Z,5.93
2022-08-17T12:26:22.800Z,4.35
2022-08-17T12:30:28.707Z,10.82
2022-08-17T12:34:39.461Z,5.50
2022-08-17T12:38:52.057Z,6.95
2022-08-17T12:43:04.047Z,4.40
2022-08-17T12:47:21.987Z,7.65
2022-08-17T12:51:29.283Z,6.05
2022-08-17T12:55:40.528Z,4.05
2022-08-17T12:59:52.922Z,5.15
2022-08-17T13:04:00.825Z,6.50
2022-08-17T13:08:17.060Z,6.82
2022-08-17T13:12:34.050Z,5.65
2022-08-17T13:16:42.042Z,9.45
2022-08-17T13:20:55.635Z,8.48
2022-08-17T13:25:05.514Z,8.90
2022-08-17T13:33:43.371Z,9.13
2022-08-17T13:38:01.788Z,6.82
2022-08-17T13:42:35.046Z,6.97
2022-08-17T13:46:57.826Z,6.45
2022-08-17T13:51:22.466Z,8.55
2022-08-17T13:55:31.212Z,12.38
2022-08-17T13:59:55.267Z,13.10
2022-08-17T14:04:03.228Z,9.32
2022-08-17T14:08:14.672Z,16.20
2022-08-17T14:12:25.135Z,18.08
2022-08-17T14:16:30.528Z,12.45
2022-08-17T14:20:35.995Z,10.38
2022-08-17T14:24:45.059Z,10.98
2022-08-17T14:28:56.644Z,8.25
2022-08-17T14:33:02.758Z,9.80
2022-08-17T14:37:08.294Z,9.05
2022-08-17T14:41:21.475Z,9.35
2022-08-17T14:45:31.752Z,9.20
2022-08-17T14:49:38.695Z,6.30
2022-08-17T14:53:45.986Z,9.10
2022-08-17T14:57:53.974Z,13.10
2022-08-17T15:02:00.823Z,9.30
2022-08-17T15:06:06.271Z,8.02
2022-08-17T15:10:12.466Z,9.48
2022-08-17T15:14:20.538Z,8.10
2022-08-17T15:18:25.943Z,9.05
2022-08-17T15:22:31.849Z,6.13
2022-08-17T15:26:38.090Z,9.05
2022-08-17T15:30:46.887Z,6.43
2022-08-17T15:34:52.315Z,8.25
2022-08-17T15:38:58.927Z,8.18
2022-08-17T15:43:08.216Z,6.60
2022-08-17T15:47:17.097Z,11.88
2022-08-17T15:51:25.377Z,9.45
2022-08-17T15:55:32.083Z,7.22
2022-08-17T15:59:38.176Z,6.60
2022-08-17T16:04:04.593Z,5.72
2022-08-17T16:08:15.879Z,7.68
2022-08-17T16:12:24.858Z,6.50
2022-08-17T16:16:31.499Z,10.43
2022-08-17T16:20:39.514Z,9.60
2022-08-17T16:24:57.229Z,9.23
2022-08-17T16:29:05.593Z,6.65
2022-08-17T16:33:15.227Z,9.73
2022-08-17T16:37:23.491Z,11.40
2022-08-17T16:41:43.076Z,10.90
2022-08-17T16:45:51.942Z,8.82
2022-08-17T16:49:57.710Z,9.43
2022-08-17T16:54:05.833Z,11.85
2022-08-17T16:58:11.397Z,9.88
2022-08-17T17:02:17.973Z,6.38
2022-08-17T17:06:32.446Z,6.75
2022-08-17T17:10:45.883Z,12.45
2022-08-17T17:14:52.627Z,8.07
2022-08-17T17:19:08.311Z,6.75
2022-08-17T17:23:31.070Z,9.25
2022-08-17T17:27:55.130Z,15.85
2022-08-17T17:32:09.604Z,12.25
2022-08-17T17:36:26.082Z,15.55
2022-08-17T17:40:38.240Z,13.15
2022-08-17T17:44:49.839Z,12.63
2022-08-17T17:48:55.217Z,14.52
2022-08-17T17:53:05.958Z,14.88
2022-08-17T17:57:21.482Z,9.93
2022-08-17T18:01:44.743Z,11.52
2022-08-17T18:06:18.745Z,14.35
2022-08-17T18:10:31.917Z,14.32
2022-08-17T18:15:00.626Z,15.50
2022-08-17T18:19:08.643Z,14.48
2022-08-17T18:23:14.333Z,12.88
2022-08-17T18:27:26.711Z,11.68
2022-08-17T18:31:32.163Z,15.52
2022-08-17T18:35:40.358Z,11.20
2022-08-17T18:39:45.789Z,13.20
2022-08-17T18:44:03.748Z,14.50
2022-08-17T18:48:21.505Z,13.20
2022-08-17T18:52:32.668Z,12.30
2022-08-17T19:00:46.680Z,14.82
2022-08-17T19:05:10.264Z,15.57
2022-08-17T19:09:35.767Z,13.95
2022-08-17T19:13:47.140Z,17.05
2022-08-17T19:18:00.345Z,15.30
2022-08-17T19:22:28.668Z,13.43
2022-08-17T19:26:54.010Z,10.00
2022-08-17T19:31:05.925Z,13.77
2022-08-17T19:35:17.503Z,9.55
2022-08-17T19:39:38.168Z,13.98
2022-08-17T19:44:00.674Z,11.63
2022-08-17T19:48:16.629Z,12.07
2022-08-17T19:52:39.489Z,10.25
2022-08-17T19:56:50.565Z,11.60
2022-08-17T20:00:58.811Z,14.02
2022-08-17T20:05:08.000Z,11.95
2022-08-17T20:09:23.026Z,11.55
2022-08-17T20:13:39.634Z,24.33
2022-08-17T20:17:50.679Z,33.67
2022-08-17T20:21:59.348Z,26.48
2022-08-17T20:26:17.192Z,20.95
2022-08-17T20:30:40.883Z,17.40
2022-08-17T20:34:50.547Z,16.17
2022-08-17T20:38:58.844Z,18.85
2022-08-17T20:43:39.384Z,17.70
2022-08-17T20:48:15.257Z,14.25
2022-08-17T20:52:18.543Z,16.63
2022-08-17T20:56:57.656Z,16.15
2022-08-17T21:01:15.003Z,13.73
2022-08-17T21:06:00.301Z,15.20
2022-08-17T21:10:18.642Z,14.43
2022-08-17T21:14:36.703Z,14.30
2022-08-17T21:18:52.279Z,13.93
2022-08-17T21:23:18.816Z,11.77
2022-08-17T21:27:37.616Z,13.63
2022-08-17T21:31:46.123Z,15.13
2022-08-17T21:35:58.733Z,11.73
2022-08-17T21:44:35.093Z,15.13
2022-08-17T21:48:48.348Z,12.32
2022-08-17T21:52:57.019Z,13.25
2022-08-17T21:57:04.574Z,15.13
2022-08-17T22:01:23.765Z,13.88
2022-08-17T22:05:36.359Z,11.50
2022-08-17T22:09:45.757Z,13.15
2022-08-17T22:13:51.514Z,15.73
2022-08-17T22:18:19.270Z,15.18
2022-08-17T22:22:29.272Z,14.05
2022-08-17T22:27:05.187Z,15.63
2022-08-17T22:31:14.552Z,12.68
2022-08-17T22:35:42.168Z,11.93
2022-08-17T22:39:47.683Z,19.20
2022-08-17T22:43:55.225Z,10.98
2022-08-17T22:48:04.267Z,13.73
2022-08-17T22:52:32.074Z,15.32
2022-08-17T22:56:50.766Z,18.42
2022-08-17T23:00:57.488Z,15.57
2022-08-17T23:05:24.146Z,16.15
2022-08-17T23:09:32.271Z,16.75
2022-08-17T23:13:40.034Z,15.20
2022-08-17T23:17:45.803Z,11.93
2022-08-17T23:21:55.497Z,15.77
2022-08-17T23:26:04.420Z,14.25
2022-08-17T23:30:11.627Z,16.88
2022-08-17T23:34:18.658Z,16.00
2022-08-17T23:38:27.192Z,14.32
2022-08-17T23:42:35.943Z,12.15
2022-08-17T23:46:41.696Z,12.48
2022-08-17T23:50:47.131Z,12.27
2022-08-17T23:54:52.923Z,13.55
2022-08-17T23:59:01.490Z,13.75
